sensor_id;sensor_type;location;lat;lon;timestamp;temperature;humidity
28023;DHT22;67403;50.104;8.758;2023-03-14T00:00:55;10.30;99.90
28023;DHT22;67403;50.104;8.758;2023-03-14T00:03:22;10.30;99.90
28023;DHT22;67403;50.104;8.758;2023-03-14T00:05:49;10.30;99.90
28023;DHT22;67403;50.104;8.758;2023-03-14T00:08:17;10.30;99.90
28023;DHT22;67403;50.104;8.758;2023-03-14T00:10:47;10.30;99.90
28023;DHT22;67403;50.104;8.758;2023-03-14T00:13:13;10.30;99.90
28023;DHT22;67403;50.104;8.758;2023-03-14T00:15:40;10.30;99.90
28023;DHT22;67403;50.104;8.758;2023-03-14T00:18:07;10.30;99.90
28023;DHT22;67403;50.104;8.758;2023-03-14T00:20:34;10.30;99.90
28023;DHT22;67403;50.104;8.758;2023-03-14T00:23:01;10.30;99.90
28023;DHT22;67403;50.104;8.758;2023-03-14T00:25:29;10.30;99.90
28023;DHT22;67403;50.104;8.758;2023-03-14T00:27:56;10.30;99.90
28023;DHT22;67403;50.104;8.758;2023-03-14T00:30:23;10.30;99.90
28023;DHT22;67403;50.104;8.758;2023-03-14T00:32:50;10.30;99.90
28023;DHT22;67403;50.104;8.758;2023-03-14T00:35:17;10.30;99.90
28023;DHT22;67403;50.104;8.758;2023-03-14T00:37:44;10.40;99.90
28023;DHT22;67403;50.104;8.758;2023-03-14T00:40:11;10.30;99.90
28023;DHT22;67403;50.104;8.758;2023-03-14T00:42:39;10.30;99.90
28023;DHT22;67403;50.104;8.758;2023-03-14T00:45:07;10.40;99.90
28023;DHT22;67403;50.104;8.758;2023-03-14T00:47:35;10.30;99.90
28023;DHT22;67403;50.104;8.758;2023-03-14T00:50:02;10.40;99.90
28023;DHT22;67403;50.104;8.758;2023-03-14T00:52:29;10.30;99.90
28023;DHT22;67403;50.104;8.758;2023-03-14T00:54:56;10.40;99.90
28023;DHT22;67403;50.104;8.758;2023-03-14T00:57:23;10.30;99.90
28023;DHT22;67403;50.104;8.758;2023-03-14T00:59:52;10.30;99.90
28023;DHT22;67403;50.104;8.758;2023-03-14T01:02:19;10.30;99.90
28023;DHT22;67403;50.104;8.758;2023-03-14T01:04:47;10.30;99.90
28023;DHT22;67403;50.104;8.758;2023-03-14T01:07:14;10.20;99.90
28023;DHT22;67403;50.104;8.758;2023-03-14T01:09:41;10.20;99.90
28023;DHT22;67403;50.104;8.758;2023-03-14T01:12:08;10.20;99.90
28023;DHT22;67403;50.104;8.758;2023-03-14T01:14:34;10.10;99.90
28023;DHT22;67403;50.104;8.758;2023-03-14T01:17:03;10.10;99.90
28023;DHT22;67403;50.104;8.758;2023-03-14T01:19:30;10.20;99.90
28023;DHT22;67403;50.104;8.758;2023-03-14T01:21:57;10.20;99.90
28023;DHT22;67403;50.104;8.758;2023-03-14T01:24:24;10.20;99.90
28023;DHT22;67403;50.104;8.758;2023-03-14T01:26:51;10.20;99.90
28023;DHT22;67403;50.104;8.758;2023-03-14T01:29:18;10.30;99.90
28023;DHT22;67403;50.104;8.758;2023-03-14T01:31:44;10.30;99.90
28023;DHT22;67403;50.104;8.758;2023-03-14T01:34:13;10.30;99.90
28023;DHT22;67403;50.104;8.758;2023-03-14T01:36:40;10.30;99.90
28023;DHT22;67403;50.104;8.758;2023-03-14T01:39:06;10.40;99.90
28023;DHT22;67403;50.104;8.758;2023-03-14T01:41:34;10.40;99.90
28023;DHT22;67403;50.104;8.758;2023-03-14T01:44:01;10.40;99.90
28023;DHT22;67403;50.104;8.758;2023-03-14T01:46:37;10.50;99.90
28023;DHT22;67403;50.104;8.758;2023-03-14T01:49:14;10.50;99.90
28023;DHT22;67403;50.104;8.758;2023-03-14T01:51:46;10.50;99.90
28023;DHT22;67403;50.104;8.758;2023-03-14T01:54:16;10.50;99.90
28023;DHT22;67403;50.104;8.758;2023-03-14T01:56:48;10.40;99.90
28023;DHT22;67403;50.104;8.758;2023-03-14T01:59:17;10.40;99.90
28023;DHT22;67403;50.104;8.758;2023-03-14T02:01:46;10.40;99.90
28023;DHT22;67403;50.104;8.758;2023-03-14T02:04:17;10.40;99.90
28023;DHT22;67403;50.104;8.758;2023-03-14T02:06:50;10.40;99.90
28023;DHT22;67403;50.104;8.758;2023-03-14T02:09:18;10.40;99.90
28023;DHT22;67403;50.104;8.758;2023-03-14T02:11:46;10.40;99.90
28023;DHT22;67403;50.104;8.758;2023-03-14T02:14:19;10.40;99.90
28023;DHT22;67403;50.104;8.758;2023-03-14T02:16:48;10.40;99.90
28023;DHT22;67403;50.104;8.758;2023-03-14T02:19:20;10.50;99.90
28023;DHT22;67403;50.104;8.758;2023-03-14T02:21:54;10.40;99.90
28023;DHT22;67403;50.104;8.758;2023-03-14T02:24:29;10.40;99.90
28023;DHT22;67403;50.104;8.758;2023-03-14T02:27:10;10.40;99.90
28023;DHT22;67403;50.104;8.758;2023-03-14T02:29:41;10.40;99.90
28023;DHT22;67403;50.104;8.758;2023-03-14T02:32:10;10.40;99.90
28023;DHT22;67403;50.104;8.758;2023-03-14T02:34:38;10.40;99.90
28023;DHT22;67403;50.104;8.758;2023-03-14T02:37:06;10.40;99.90
28023;DHT22;67403;50.104;8.758;2023-03-14T02:39:36;10.30;99.90
28023;DHT22;67403;50.104;8.758;2023-03-14T02:42:04;10.40;99.90
28023;DHT22;67403;50.104;8.758;2023-03-14T02:44:33;10.30;99.90
28023;DHT22;67403;50.104;8.758;2023-03-14T02:47:01;10.40;99.90
28023;DHT22;67403;50.104;8.758;2023-03-14T02:49:30;10.30;99.90
28023;DHT22;67403;50.104;8.758;2023-03-14T02:51:58;10.30;99.90
28023;DHT22;67403;50.104;8.758;2023-03-14T02:54:25;10.30;99.90
28023;DHT22;67403;50.104;8.758;2023-03-14T02:56:51;10.30;99.90
28023;DHT22;67403;50.104;8.758;2023-03-14T02:59:18;10.30;99.90
28023;DHT22;67403;50.104;8.758;2023-03-14T03:01:47;10.40;99.90
28023;DHT22;67403;50.104;8.758;2023-03-14T03:04:13;10.30;99.90
28023;DHT22;67403;50.104;8.758;2023-03-14T03:06:40;10.40;99.90
28023;DHT22;67403;50.104;8.758;2023-03-14T03:09:08;10.40;99.90
28023;DHT22;67403;50.104;8.758;2023-03-14T03:11:35;10.40;99.90
28023;DHT22;67403;50.104;8.758;2023-03-14T03:14:01;10.40;99.90
28023;DHT22;67403;50.104;8.758;2023-03-14T03:16:28;10.40;99.90
28023;DHT22;67403;50.104;8.758;2023-03-14T03:18:56;10.50;99.90
28023;DHT22;67403;50.104;8.758;2023-03-14T03:21:23;10.40;99.90
28023;DHT22;67403;50.104;8.758;2023-03-14T03:23:50;10.40;99.90
28023;DHT22;67403;50.104;8.758;2023-03-14T03:26:17;10.50;99.90
28023;DHT22;67403;50.104;8.758;2023-03-14T03:28:44;10.60;99.90
28023;DHT22;67403;50.104;8.758;2023-03-14T03:31:11;10.50;99.90
28023;DHT22;67403;50.104;8.758;2023-03-14T03:33:39;10.40;99.90
28023;DHT22;67403;50.104;8.758;2023-03-14T03:36:09;10.50;99.90
28023;DHT22;67403;50.104;8.758;2023-03-14T03:38:36;10.40;99.90
28023;DHT22;67403;50.104;8.758;2023-03-14T03:41:04;10.40;99.90
28023;DHT22;67403;50.104;8.758;2023-03-14T03:43:31;10.40;99.90
28023;DHT22;67403;50.104;8.758;2023-03-14T03:45:58;10.40;99.90
28023;DHT22;67403;50.104;8.758;2023-03-14T03:48:25;10.40;99.90
28023;DHT22;67403;50.104;8.758;2023-03-14T03:50:52;10.40;99.90
28023;DHT22;67403;50.104;8.758;2023-03-14T03:53:20;10.40;99.90
28023;DHT22;67403;50.104;8.758;2023-03-14T03:55:47;10.30;99.90
28023;DHT22;67403;50.104;8.758;2023-03-14T03:58:14;10.30;99.90
28023;DHT22;67403;50.104;8.758;2023-03-14T04:00:41;10.40;99.90
28023;DHT22;67403;50.104;8.758;2023-03-14T04:03:08;10.50;99.90
28023;DHT22;67403;50.104;8.758;2023-03-14T04:05:35;10.50;99.90
28023;DHT22;67403;50.104;8.758;2023-03-14T04:08:02;10.40;99.90
28023;DHT22;67403;50.104;8.758;2023-03-14T04:10:34;10.50;99.90
28023;DHT22;67403;50.104;8.758;2023-03-14T04:13:00;10.50;99.90
28023;DHT22;67403;50.104;8.758;2023-03-14T04:15:27;10.50;99.90
28023;DHT22;67403;50.104;8.758;2023-03-14T04:17:56;10.50;99.90
28023;DHT22;67403;50.104;8.758;2023-03-14T04:20:23;10.50;99.90
28023;DHT22;67403;50.104;8.758;2023-03-14T04:22:50;10.50;99.90
28023;DHT22;67403;50.104;8.758;2023-03-14T04:25:17;10.50;99.90
28023;DHT22;67403;50.104;8.758;2023-03-14T04:27:47;10.40;99.90
28023;DHT22;67403;50.104;8.758;2023-03-14T04:30:14;10.50;99.90
28023;DHT22;67403;50.104;8.758;2023-03-14T04:32:41;10.50;99.90
28023;DHT22;67403;50.104;8.758;2023-03-14T04:35:08;10.50;99.90
28023;DHT22;67403;50.104;8.758;2023-03-14T04:37:35;10.50;99.90
28023;DHT22;67403;50.104;8.758;2023-03-14T04:40:03;10.60;99.90
28023;DHT22;67403;50.104;8.758;2023-03-14T04:42:31;10.60;99.90
28023;DHT22;67403;50.104;8.758;2023-03-14T04:45:00;10.60;99.90
28023;DHT22;67403;50.104;8.758;2023-03-14T04:47:27;10.70;99.90
28023;DHT22;67403;50.104;8.758;2023-03-14T04:49:54;10.70;99.90
28023;DHT22;67403;50.104;8.758;2023-03-14T04:52:21;10.70;99.90
28023;DHT22;67403;50.104;8.758;2023-03-14T04:54:48;10.80;99.90
28023;DHT22;67403;50.104;8.758;2023-03-14T04:57:14;10.70;99.90
28023;DHT22;67403;50.104;8.758;2023-03-14T04:59:41;10.80;99.90
28023;DHT22;67403;50.104;8.758;2023-03-14T05:02:10;10.80;99.90
28023;DHT22;67403;50.104;8.758;2023-03-14T05:04:37;10.80;99.90
28023;DHT22;67403;50.104;8.758;2023-03-14T05:07:04;10.80;99.90
28023;DHT22;67403;50.104;8.758;2023-03-14T05:09:30;10.80;99.90
28023;DHT22;67403;50.104;8.758;2023-03-14T05:11:57;10.80;99.90
28023;DHT22;67403;50.104;8.758;2023-03-14T05:14:24;10.70;99.90
28023;DHT22;67403;50.104;8.758;2023-03-14T05:16:51;10.70;99.90
28023;DHT22;67403;50.104;8.758;2023-03-14T05:19:19;10.70;99.90
28023;DHT22;67403;50.104;8.758;2023-03-14T05:21:46;10.70;99.90
28023;DHT22;67403;50.104;8.758;2023-03-14T05:24:13;10.70;99.90
28023;DHT22;67403;50.104;8.758;2023-03-14T05:26:40;10.70;99.90
28023;DHT22;67403;50.104;8.758;2023-03-14T05:29:07;10.70;99.90
28023;DHT22;67403;50.104;8.758;2023-03-14T05:31:34;10.70;99.90
28023;DHT22;67403;50.104;8.758;2023-03-14T05:34:01;10.70;99.90
28023;DHT22;67403;50.104;8.758;2023-03-14T05:36:29;10.70;99.90
28023;DHT22;67403;50.104;8.758;2023-03-14T05:38:56;10.70;99.90
28023;DHT22;67403;50.104;8.758;2023-03-14T05:41:23;10.80;99.90
28023;DHT22;67403;50.104;8.758;2023-03-14T05:43:50;10.70;99.90
28023;DHT22;67403;50.104;8.758;2023-03-14T05:46:17;10.80;99.90
28023;DHT22;67403;50.104;8.758;2023-03-14T05:48:44;10.70;99.90
28023;DHT22;67403;50.104;8.758;2023-03-14T05:51:10;10.70;99.90
28023;DHT22;67403;50.104;8.758;2023-03-14T05:53:39;10.70;99.90
28023;DHT22;67403;50.104;8.758;2023-03-14T05:56:07;10.70;99.90
28023;DHT22;67403;50.104;8.758;2023-03-14T05:58:34;10.80;99.90
28023;DHT22;67403;50.104;8.758;2023-03-14T06:01:02;10.70;99.90
28023;DHT22;67403;50.104;8.758;2023-03-14T06:03:29;10.70;99.90
28023;DHT22;67403;50.104;8.758;2023-03-14T06:05:56;10.70;99.90
28023;DHT22;67403;50.104;8.758;2023-03-14T06:08:23;10.70;99.90
28023;DHT22;67403;50.104;8.758;2023-03-14T06:10:51;10.70;99.90
28023;DHT22;67403;50.104;8.758;2023-03-14T06:13:18;10.70;99.90
28023;DHT22;67403;50.104;8.758;2023-03-14T06:15:45;10.70;99.90
28023;DHT22;67403;50.104;8.758;2023-03-14T06:18:12;10.70;99.90
28023;DHT22;67403;50.104;8.758;2023-03-14T06:20:44;10.70;99.90
28023;DHT22;67403;50.104;8.758;2023-03-14T06:23:11;10.70;99.90
28023;DHT22;67403;50.104;8.758;2023-03-14T06:25:38;10.60;99.90
28023;DHT22;67403;50.104;8.758;2023-03-14T06:28:06;10.60;99.90
28023;DHT22;67403;50.104;8.758;2023-03-14T06:30:33;10.60;99.90
28023;DHT22;67403;50.104;8.758;2023-03-14T06:33:00;10.60;99.90
28023;DHT22;67403;50.104;8.758;2023-03-14T06:35:29;10.70;99.90
28023;DHT22;67403;50.104;8.758;2023-03-14T06:37:56;10.50;99.90
28023;DHT22;67403;50.104;8.758;2023-03-14T06:40:23;10.50;99.90
28023;DHT22;67403;50.104;8.758;2023-03-14T06:42:50;10.50;99.90
28023;DHT22;67403;50.104;8.758;2023-03-14T06:45:18;10.50;99.90
28023;DHT22;67403;50.104;8.758;2023-03-14T06:47:45;10.40;99.90
28023;DHT22;67403;50.104;8.758;2023-03-14T06:50:12;10.50;99.90
28023;DHT22;67403;50.104;8.758;2023-03-14T06:52:39;10.60;99.90
28023;DHT22;67403;50.104;8.758;2023-03-14T06:55:07;10.50;99.90
28023;DHT22;67403;50.104;8.758;2023-03-14T06:57:35;10.60;99.90
28023;DHT22;67403;50.104;8.758;2023-03-14T07:00:02;10.60;99.90
28023;DHT22;67403;50.104;8.758;2023-03-14T07:02:31;10.60;99.90
28023;DHT22;67403;50.104;8.758;2023-03-14T07:04:57;10.60;99.90
28023;DHT22;67403;50.104;8.758;2023-03-14T07:07:24;10.70;99.90
28023;DHT22;67403;50.104;8.758;2023-03-14T07:09:51;10.70;99.90
28023;DHT22;67403;50.104;8.758;2023-03-14T07:12:18;10.70;99.90
28023;DHT22;67403;50.104;8.758;2023-03-14T07:14:45;10.60;99.90
28023;DHT22;67403;50.104;8.758;2023-03-14T07:17:12;10.70;99.90
28023;DHT22;67403;50.104;8.758;2023-03-14T07:19:40;10.70;99.90
28023;DHT22;67403;50.104;8.758;2023-03-14T07:22:07;10.70;99.90
28023;DHT22;67403;50.104;8.758;2023-03-14T07:24:34;10.60;99.90
28023;DHT22;67403;50.104;8.758;2023-03-14T07:27:01;10.70;99.90
28023;DHT22;67403;50.104;8.758;2023-03-14T07:29:28;10.80;99.90
28023;DHT22;67403;50.104;8.758;2023-03-14T07:31:55;10.80;99.90
28023;DHT22;67403;50.104;8.758;2023-03-14T07:34:21;10.80;99.90
28023;DHT22;67403;50.104;8.758;2023-03-14T07:36:50;10.90;99.90
28023;DHT22;67403;50.104;8.758;2023-03-14T07:39:17;10.90;99.90
28023;DHT22;67403;50.104;8.758;2023-03-14T07:41:43;11.00;99.90
28023;DHT22;67403;50.104;8.758;2023-03-14T07:44:10;11.00;99.90
28023;DHT22;67403;50.104;8.758;2023-03-14T07:46:37;11.00;99.90
28023;DHT22;67403;50.104;8.758;2023-03-14T07:49:04;11.00;99.90
28023;DHT22;67403;50.104;8.758;2023-03-14T07:51:31;11.00;99.90
28023;DHT22;67403;50.104;8.758;2023-03-14T07:54:00;11.10;99.90
28023;DHT22;67403;50.104;8.758;2023-03-14T07:56:26;11.00;99.90
28023;DHT22;67403;50.104;8.758;2023-03-14T07:58:53;11.00;99.90
28023;DHT22;67403;50.104;8.758;2023-03-14T08:01:21;11.00;99.90
28023;DHT22;67403;50.104;8.758;2023-03-14T08:03:47;11.00;99.90
28023;DHT22;67403;50.104;8.758;2023-03-14T08:06:14;11.00;99.90
28023;DHT22;67403;50.104;8.758;2023-03-14T08:08:41;11.00;99.90
28023;DHT22;67403;50.104;8.758;2023-03-14T08:11:10;11.00;99.90
28023;DHT22;67403;50.104;8.758;2023-03-14T08:13:37;11.10;99.90
28023;DHT22;67403;50.104;8.758;2023-03-14T08:16:05;11.00;99.90
28023;DHT22;67403;50.104;8.758;2023-03-14T08:18:32;11.10;99.90
28023;DHT22;67403;50.104;8.758;2023-03-14T08:20:59;11.10;99.90
28023;DHT22;67403;50.104;8.758;2023-03-14T08:23:26;11.10;99.90
28023;DHT22;67403;50.104;8.758;2023-03-14T08:25:53;11.20;99.90
28023;DHT22;67403;50.104;8.758;2023-03-14T08:28:21;11.30;99.90
28023;DHT22;67403;50.104;8.758;2023-03-14T08:30:48;11.30;99.90
28023;DHT22;67403;50.104;8.758;2023-03-14T08:33:15;11.40;99.90
28023;DHT22;67403;50.104;8.758;2023-03-14T08:35:42;11.40;99.90
28023;DHT22;67403;50.104;8.758;2023-03-14T08:38:08;11.40;99.90
28023;DHT22;67403;50.104;8.758;2023-03-14T08:40:35;11.50;99.90
28023;DHT22;67403;50.104;8.758;2023-03-14T08:43:02;11.60;99.90
28023;DHT22;67403;50.104;8.758;2023-03-14T08:45:30;11.60;99.90
28023;DHT22;67403;50.104;8.758;2023-03-14T08:47:57;11.50;99.90
28023;DHT22;67403;50.104;8.758;2023-03-14T08:50:25;11.50;99.90
28023;DHT22;67403;50.104;8.758;2023-03-14T08:52:52;11.50;99.90
28023;DHT22;67403;50.104;8.758;2023-03-14T08:55:19;11.40;99.90
28023;DHT22;67403;50.104;8.758;2023-03-14T08:57:46;11.50;99.90
28023;DHT22;67403;50.104;8.758;2023-03-14T09:00:13;11.70;99.90
28023;DHT22;67403;50.104;8.758;2023-03-14T09:02:42;11.90;99.90
28023;DHT22;67403;50.104;8.758;2023-03-14T09:05:09;11.90;99.90
28023;DHT22;67403;50.104;8.758;2023-03-14T09:07:37;12.10;99.90
28023;DHT22;67403;50.104;8.758;2023-03-14T09:10:05;12.20;99.90
28023;DHT22;67403;50.104;8.758;2023-03-14T09:12:32;12.20;99.90
28023;DHT22;67403;50.104;8.758;2023-03-14T09:14:59;12.30;99.90
28023;DHT22;67403;50.104;8.758;2023-03-14T09:17:26;12.40;99.90
28023;DHT22;67403;50.104;8.758;2023-03-14T09:19:54;12.30;99.90
28023;DHT22;67403;50.104;8.758;2023-03-14T09:22:21;12.10;99.90
28023;DHT22;67403;50.104;8.758;2023-03-14T09:24:48;12.10;99.90
28023;DHT22;67403;50.104;8.758;2023-03-14T09:27:15;12.20;99.90
28023;DHT22;67403;50.104;8.758;2023-03-14T09:29:42;12.30;99.90
28023;DHT22;67403;50.104;8.758;2023-03-14T09:32:09;12.30;99.90
28023;DHT22;67403;50.104;8.758;2023-03-14T09:34:35;12.40;99.90
28023;DHT22;67403;50.104;8.758;2023-03-14T09:37:04;12.30;99.90
28023;DHT22;67403;50.104;8.758;2023-03-14T09:39:30;12.40;99.90
28023;DHT22;67403;50.104;8.758;2023-03-14T09:41:59;12.50;99.90
28023;DHT22;67403;50.104;8.758;2023-03-14T09:44:30;12.50;99.90
28023;DHT22;67403;50.104;8.758;2023-03-14T09:47:01;12.50;99.90
28023;DHT22;67403;50.104;8.758;2023-03-14T09:49:32;12.30;99.90
28023;DHT22;67403;50.104;8.758;2023-03-14T09:52:02;12.20;99.90
28023;DHT22;67403;50.104;8.758;2023-03-14T09:54:35;12.10;99.90
28023;DHT22;67403;50.104;8.758;2023-03-14T09:57:04;11.80;99.90
28023;DHT22;67403;50.104;8.758;2023-03-14T09:59:34;11.60;99.90
28023;DHT22;67403;50.104;8.758;2023-03-14T10:02:13;11.40;99.90
28023;DHT22;67403;50.104;8.758;2023-03-14T10:04:41;11.20;99.90
28023;DHT22;67403;50.104;8.758;2023-03-14T10:07:13;11.00;99.90
28023;DHT22;67403;50.104;8.758;2023-03-14T10:09:44;11.00;99.90
28023;DHT22;67403;50.104;8.758;2023-03-14T10:12:11;11.00;99.90
28023;DHT22;67403;50.104;8.758;2023-03-14T10:14:46;11.00;99.90
28023;DHT22;67403;50.104;8.758;2023-03-14T10:17:15;11.10;99.90
28023;DHT22;67403;50.104;8.758;2023-03-14T10:19:55;11.20;99.90
28023;DHT22;67403;50.104;8.758;2023-03-14T10:22:23;11.30;99.90
28023;DHT22;67403;50.104;8.758;2023-03-14T10:24:54;11.40;99.90
28023;DHT22;67403;50.104;8.758;2023-03-14T10:27:30;11.50;99.90
28023;DHT22;67403;50.104;8.758;2023-03-14T10:29:59;11.50;99.90
28023;DHT22;67403;50.104;8.758;2023-03-14T10:32:33;11.60;99.90
28023;DHT22;67403;50.104;8.758;2023-03-14T10:35:08;11.70;99.90
28023;DHT22;67403;50.104;8.758;2023-03-14T10:37:35;11.70;99.90
28023;DHT22;67403;50.104;8.758;2023-03-14T10:40:05;11.70;99.90
28023;DHT22;67403;50.104;8.758;2023-03-14T10:42:34;11.70;99.90
28023;DHT22;67403;50.104;8.758;2023-03-14T10:45:10;11.60;99.90
28023;DHT22;67403;50.104;8.758;2023-03-14T10:47:49;11.50;99.90
28023;DHT22;67403;50.104;8.758;2023-03-14T10:50:23;11.50;99.90
28023;DHT22;67403;50.104;8.758;2023-03-14T10:52:52;11.40;99.90
28023;DHT22;67403;50.104;8.758;2023-03-14T10:55:23;11.30;99.90
28023;DHT22;67403;50.104;8.758;2023-03-14T10:57:50;11.30;99.90
28023;DHT22;67403;50.104;8.758;2023-03-14T11:00:19;11.20;99.90
28023;DHT22;67403;50.104;8.758;2023-03-14T11:02:58;11.00;99.90
28023;DHT22;67403;50.104;8.758;2023-03-14T11:05:33;10.90;99.90
28023;DHT22;67403;50.104;8.758;2023-03-14T11:08:02;10.80;99.90
28023;DHT22;67403;50.104;8.758;2023-03-14T11:10:35;10.70;99.90
28023;DHT22;67403;50.104;8.758;2023-03-14T11:13:15;10.70;99.90
28023;DHT22;67403;50.104;8.758;2023-03-14T11:15:54;10.60;99.90
28023;DHT22;67403;50.104;8.758;2023-03-14T11:18:45;10.60;99.90
28023;DHT22;67403;50.104;8.758;2023-03-14T11:21:18;10.60;99.90
28023;DHT22;67403;50.104;8.758;2023-03-14T11:23:56;10.60;99.90
28023;DHT22;67403;50.104;8.758;2023-03-14T11:26:31;10.60;99.90
28023;DHT22;67403;50.104;8.758;2023-03-14T11:29:12;10.70;99.90
28023;DHT22;67403;50.104;8.758;2023-03-14T11:31:44;10.80;99.90
28023;DHT22;67403;50.104;8.758;2023-03-14T11:34:16;10.80;99.90
28023;DHT22;67403;50.104;8.758;2023-03-14T11:36:48;10.90;99.90
28023;DHT22;67403;50.104;8.758;2023-03-14T11:39:18;10.80;99.90
28023;DHT22;67403;50.104;8.758;2023-03-14T11:41:49;10.90;99.90
28023;DHT22;67403;50.104;8.758;2023-03-14T11:44:30;10.90;99.90
28023;DHT22;67403;50.104;8.758;2023-03-14T11:47:03;10.90;99.90
28023;DHT22;67403;50.104;8.758;2023-03-14T11:49:36;10.90;99.90
28023;DHT22;67403;50.104;8.758;2023-03-14T11:52:09;11.00;99.90
28023;DHT22;67403;50.104;8.758;2023-03-14T11:54:41;10.90;99.90
28023;DHT22;67403;50.104;8.758;2023-03-14T11:57:14;11.00;99.90
28023;DHT22;67403;50.104;8.758;2023-03-14T11:59:47;11.10;99.90
28023;DHT22;67403;50.104;8.758;2023-03-14T12:02:22;11.10;99.90
28023;DHT22;67403;50.104;8.758;2023-03-14T12:05:14;11.10;99.90
28023;DHT22;67403;50.104;8.758;2023-03-14T12:08:01;11.10;99.90
28023;DHT22;67403;50.104;8.758;2023-03-14T12:10:36;11.20;99.90
28023;DHT22;67403;50.104;8.758;2023-03-14T12:13:07;11.10;99.90
28023;DHT22;67403;50.104;8.758;2023-03-14T12:15:40;11.10;99.90
28023;DHT22;67403;50.104;8.758;2023-03-14T12:18:19;11.00;99.90
28023;DHT22;67403;50.104;8.758;2023-03-14T12:20:51;9.80;99.90
28023;DHT22;67403;50.104;8.758;2023-03-14T12:23:20;9.20;99.90
28023;DHT22;67403;50.104;8.758;2023-03-14T12:25:48;9.10;99.90
28023;DHT22;67403;50.104;8.758;2023-03-14T12:28:33;9.10;99.90
28023;DHT22;67403;50.104;8.758;2023-03-14T12:34:01;9.20;99.90
28023;DHT22;67403;50.104;8.758;2023-03-14T12:36:59;9.30;99.90
28023;DHT22;67403;50.104;8.758;2023-03-14T12:39:40;9.30;99.90
28023;DHT22;67403;50.104;8.758;2023-03-14T12:42:11;9.30;99.90
28023;DHT22;67403;50.104;8.758;2023-03-14T12:44:44;9.30;99.90
28023;DHT22;67403;50.104;8.758;2023-03-14T12:50:27;9.30;99.90
28023;DHT22;67403;50.104;8.758;2023-03-14T12:53:45;9.30;99.90
28023;DHT22;67403;50.104;8.758;2023-03-14T12:56:28;9.50;99.90
28023;DHT22;67403;50.104;8.758;2023-03-14T12:59:29;9.60;99.90
28023;DHT22;67403;50.104;8.758;2023-03-14T13:02:01;9.70;99.90
28023;DHT22;67403;50.104;8.758;2023-03-14T13:04:32;9.90;99.90
28023;DHT22;67403;50.104;8.758;2023-03-14T13:07:01;9.80;99.90
28023;DHT22;67403;50.104;8.758;2023-03-14T13:10:15;9.80;99.90
28023;DHT22;67403;50.104;8.758;2023-03-14T13:12:48;9.90;99.90
28023;DHT22;67403;50.104;8.758;2023-03-14T13:15:19;10.10;99.90
28023;DHT22;67403;50.104;8.758;2023-03-14T13:17:49;10.10;99.90
28023;DHT22;67403;50.104;8.758;2023-03-14T13:20:23;10.40;99.90
28023;DHT22;67403;50.104;8.758;2023-03-14T13:22:51;10.40;99.90
28023;DHT22;67403;50.104;8.758;2023-03-14T13:25:18;10.50;99.90
28023;DHT22;67403;50.104;8.758;2023-03-14T13:27:47;10.60;99.90
28023;DHT22;67403;50.104;8.758;2023-03-14T13:30:16;10.60;99.90
28023;DHT22;67403;50.104;8.758;2023-03-14T13:32:45;10.70;99.90
28023;DHT22;67403;50.104;8.758;2023-03-14T13:35:22;11.00;99.90
28023;DHT22;67403;50.104;8.758;2023-03-14T13:37:55;11.10;99.90
28023;DHT22;67403;50.104;8.758;2023-03-14T13:40:26;10.90;99.90
28023;DHT22;67403;50.104;8.758;2023-03-14T13:43:04;10.90;99.90
28023;DHT22;67403;50.104;8.758;2023-03-14T13:45:31;10.80;99.90
28023;DHT22;67403;50.104;8.758;2023-03-14T13:47:58;10.90;99.90
28023;DHT22;67403;50.104;8.758;2023-03-14T13:50:26;11.00;99.90
28023;DHT22;67403;50.104;8.758;2023-03-14T13:52:56;10.90;99.90
28023;DHT22;67403;50.104;8.758;2023-03-14T13:55:23;11.30;99.90
28023;DHT22;67403;50.104;8.758;2023-03-14T13:57:52;11.60;99.90
28023;DHT22;67403;50.104;8.758;2023-03-14T14:00:22;11.20;99.90
28023;DHT22;67403;50.104;8.758;2023-03-14T14:02:53;10.70;99.90
28023;DHT22;67403;50.104;8.758;2023-03-14T14:05:21;10.50;99.90
28023;DHT22;67403;50.104;8.758;2023-03-14T14:07:50;10.40;99.90
28023;DHT22;67403;50.104;8.758;2023-03-14T14:10:18;10.40;99.90
28023;DHT22;67403;50.104;8.758;2023-03-14T14:12:48;10.30;99.90
28023;DHT22;67403;50.104;8.758;2023-03-14T14:15:20;10.20;99.90
28023;DHT22;67403;50.104;8.758;2023-03-14T14:17:50;10.10;99.90
28023;DHT22;67403;50.104;8.758;2023-03-14T14:20:23;10.00;99.90
28023;DHT22;67403;50.104;8.758;2023-03-14T14:22:53;9.80;99.90
28023;DHT22;67403;50.104;8.758;2023-03-14T14:25:20;9.90;99.90
28023;DHT22;67403;50.104;8.758;2023-03-14T14:27:48;9.90;99.90
28023;DHT22;67403;50.104;8.758;2023-03-14T14:30:28;10.00;99.90
28023;DHT22;67403;50.104;8.758;2023-03-14T14:33:12;10.10;99.90
28023;DHT22;67403;50.104;8.758;2023-03-14T14:35:40;10.30;99.90
28023;DHT22;67403;50.104;8.758;2023-03-14T14:38:16;10.20;99.90
28023;DHT22;67403;50.104;8.758;2023-03-14T14:40:44;9.70;99.90
28023;DHT22;67403;50.104;8.758;2023-03-14T14:43:16;9.20;99.90
28023;DHT22;67403;50.104;8.758;2023-03-14T14:45:45;8.50;99.90
28023;DHT22;67403;50.104;8.758;2023-03-14T14:48:14;8.10;99.90
28023;DHT22;67403;50.104;8.758;2023-03-14T14:50:53;8.10;99.90
28023;DHT22;67403;50.104;8.758;2023-03-14T14:53:26;8.20;99.90
28023;DHT22;67403;50.104;8.758;2023-03-14T14:55:55;8.20;99.90
28023;DHT22;67403;50.104;8.758;2023-03-14T14:58:25;8.30;99.90
28023;DHT22;67403;50.104;8.758;2023-03-14T15:00:56;8.40;99.90
28023;DHT22;67403;50.104;8.758;2023-03-14T15:03:26;8.40;99.90
28023;DHT22;67403;50.104;8.758;2023-03-14T15:05:54;8.40;99.90
28023;DHT22;67403;50.104;8.758;2023-03-14T15:08:24;8.30;99.90
28023;DHT22;67403;50.104;8.758;2023-03-14T15:10:51;8.20;99.90
28023;DHT22;67403;50.104;8.758;2023-03-14T15:13:18;8.00;99.90
28023;DHT22;67403;50.104;8.758;2023-03-14T15:15:45;7.90;99.90
28023;DHT22;67403;50.104;8.758;2023-03-14T15:18:15;7.70;99.90
28023;DHT22;67403;50.104;8.758;2023-03-14T15:20:42;7.70;99.90
28023;DHT22;67403;50.104;8.758;2023-03-14T15:23:10;7.60;99.90
28023;DHT22;67403;50.104;8.758;2023-03-14T15:25:39;7.60;99.90
28023;DHT22;67403;50.104;8.758;2023-03-14T15:28:15;7.50;99.90
28023;DHT22;67403;50.104;8.758;2023-03-14T15:30:43;7.60;99.90
28023;DHT22;67403;50.104;8.758;2023-03-14T15:33:09;7.60;99.90
28023;DHT22;67403;50.104;8.758;2023-03-14T15:35:37;7.60;99.90
28023;DHT22;67403;50.104;8.758;2023-03-14T15:38:04;7.60;99.90
28023;DHT22;67403;50.104;8.758;2023-03-14T15:40:31;7.50;99.90
28023;DHT22;67403;50.104;8.758;2023-03-14T15:42:59;7.50;99.90
28023;DHT22;67403;50.104;8.758;2023-03-14T15:45:26;7.60;99.90
28023;DHT22;67403;50.104;8.758;2023-03-14T15:47:53;7.60;99.90
28023;DHT22;67403;50.104;8.758;2023-03-14T15:50:20;7.60;99.90
28023;DHT22;67403;50.104;8.758;2023-03-14T15:52:47;7.60;99.90